Flight Track Log - Related Links

Times and Time Zones

All times are in EDT time to prevent confusion due to time zone crossing. See the DAL776 flight status page for this flight to view local times or setup timezone preferences in your user account.

Time Position Orientation Groundspeed Altitude Reporting Facility
EDT Latitude Longitude Course Direction KTS MPH feet Rate Location/Type
Sat 09:54:16 PM 33.6333 -84.3667 194° South 207 238 3,100  Level Atlanta TRACON
Sat 09:55:16 PM 33.6000 -84.3000 121° Southeast 260 299 6,400 3,342 Climbing Atlanta TRACON
Sat 09:56:00 PM 33.3953 -84.2827 194° South  Level FlightAware Approximate
Sat 09:56:54 PM 33.4914 -84.2781 170° South 270 311 11,900  Level Atlanta Center
Sat 09:57:00 PM 33.2850 -84.3149 194° South  Level FlightAware Approximate
Sat 09:57:54 PM 33.4142 -84.2903 188° South 276 318 14,700  Level Atlanta Center
Sat 09:58:00 PM 33.1748 -84.3471 194° South  Level FlightAware Approximate
Sat 09:58:54 PM 33.3222 -84.3197 195° South 314 361 16,200  Level Atlanta Center
Sat 09:59:00 PM 33.0645 -84.3791 194° South  Level FlightAware Approximate
Sat 09:59:54 PM 33.2197 -84.3492 194° South 366 421 18,500  Level Atlanta Center
Sat 10:00:54 PM 33.1175 -84.3786 194° South 383 441 20,700 2,600 Climbing Atlanta Center
Sat 10:01:54 PM 33.0067 -84.4103 193° South 397 457 23,700 2,450 Climbing Atlanta Center
Sat 10:02:54 PM 32.8983 -84.4247 186° South 397 457 25,600 1,800 Climbing Atlanta Center
Sat 10:03:54 PM 32.7833 -84.4169 177° South 397 457 27,300 1,600 Climbing Atlanta Center
Sat 10:04:54 PM 32.6644 -84.3917 170° South 421 484 28,800 1,450 Climbing Atlanta Center
Sat 10:05:54 PM 32.5436 -84.3689 171° South 434 499 30,200 1,400 Climbing Atlanta Center
Sat 10:06:54 PM 32.4183 -84.3489 172° South 447 514 31,600 1,450 Climbing Atlanta Center
Sat 10:07:54 PM 32.2889 -84.3264 172° South 460 529 33,100 1,750 Climbing Atlanta Center
Sat 10:08:54 PM 32.1617 -84.3039 171° South 467 537 35,100 1,742 Climbing Atlanta Center
Sat 10:09:27 PM 32.0900 -84.2903 171° South 464 534 35,800 1,548 Climbing Jacksonville Center
Sat 10:10:27 PM 31.9650 -84.2689 172° South 484 557 37,500 1,450 Climbing Jacksonville Center
Sat 10:11:27 PM 31.8378 -84.2450 171° South 474 545 38,700 750 Climbing Jacksonville Center
Sat 10:12:27 PM 31.7106 -84.2236 172° South 468 539 39,000 150 Climbing Jacksonville Center
Sat 10:13:27 PM 31.5814 -84.2022 172° South 468 539 39,000  Level Jacksonville Center
Sat 10:14:27 PM 31.4481 -84.1808 172° South 468 539 39,000  Level Jacksonville Center
Sat 10:15:27 PM 31.3208 -84.1572 171° South 468 539 39,000  Level Jacksonville Center
Sat 10:16:27 PM 31.1917 -84.1239 168° South 473 544 39,000  Level Jacksonville Center
Sat 10:17:27 PM 31.0669 -84.0811 164° South 473 544 39,000  Level Jacksonville Center
Sat 10:18:27 PM 30.9442 -84.0358 162° South 467 537 39,000  Level Jacksonville Center
Sat 10:19:27 PM 30.8150 -83.9956 165° South 473 544 39,000  Level Jacksonville Center
Sat 10:20:27 PM 30.6900 -83.9531 164° South 473 544 39,000  Level Jacksonville Center
Sat 10:21:27 PM 30.5653 -83.9083 163° South 473 544 39,000  Level Jacksonville Center
Sat 10:22:27 PM 30.4589 -83.8711 163° South 459 528 39,000  Level Jacksonville Center
Sat 10:23:27 PM 30.3319 -83.8289 164° South 459 528 39,000  Level Jacksonville Center
Sat 10:24:27 PM 30.2069 -83.7867 164° South 459 528 39,000  Level Jacksonville Center
Sat 10:25:27 PM 30.0800 -83.7422 163° South 471 542 39,000  Level Jacksonville Center
Sat 10:26:27 PM 29.9528 -83.7006 164° South 471 542 39,000 -50 Level Jacksonville Center
Sat 10:27:27 PM 29.8278 -83.6586 164° South 471 542 38,900  Descending Jacksonville Center
Sat 10:28:27 PM 29.6986 -83.6194 165° South 471 542 39,000 50 Climbing Jacksonville Center
Sat 10:29:27 PM 29.5736 -83.5756 163° South 471 542 39,000 -100 Level Jacksonville Center
Sat 10:30:27 PM 29.4444 -83.5342 164° South 471 542 38,800 -800 Descending Jacksonville Center
Sat 10:31:27 PM 29.3172 -83.4903 163° South 476 548 37,400 -2,000 Descending Jacksonville Center
Sat 10:32:27 PM 29.1881 -83.4467 164° South 476 548 34,800 -3,300 Descending Jacksonville Center
Sat 10:33:27 PM 29.0442 -83.4008 164° South 482 555 30,800 -3,900 Descending Jacksonville Center
Sat 10:34:27 PM 28.9108 -83.3528 162° South 487 560 27,000 -3,150 Descending Jacksonville Center
Sat 10:35:27 PM 28.7878 -83.3047 161° South 487 560 24,500 -2,374 Descending Jacksonville Center
Sat 10:37:29 PM 28.5500 -83.2000 159° South 436 502 19,800 -2,230 Descending Tampa TRACON
Sat 10:38:30 PM 28.4333 -83.1667 166° South 425 489 17,700 -1,983 Descending Tampa TRACON
Sat 10:39:30 PM 28.3333 -83.1167 156° South 407 468 15,800 -1,947 Descending Tampa TRACON
Sat 10:40:24 PM 28.2500 -83.0667 152° Southeast 389 448 14,000 -2,105 Descending Tampa TRACON
Sat 10:41:24 PM 28.1500 -83.0167 156° South 378 435 11,800 -1,550 Descending Tampa TRACON
Sat 10:42:24 PM 28.0667 -82.9833 161° South 316 364 10,900 -1,238 Descending Tampa TRACON
Sat 10:43:30 PM 27.9833 -82.9500 161° South 289 333 9,200 -1,476 Descending Tampa TRACON
Sat 10:44:30 PM 27.9167 -82.9167 156° South 282 325 7,800 -1,450 Descending Tampa TRACON
Sat 10:45:30 PM 27.8333 -82.8833 161° South 276 318 6,300 -1,350 Descending Tampa TRACON
Sat 10:46:30 PM 27.7667 -82.8500 156° South 270 311 5,100 -1,200 Descending Tampa TRACON
Sat 10:47:30 PM 27.7000 -82.8167 156° South 262 302 3,900 -1,000 Descending Tampa TRACON
Sat 10:48:30 PM 27.6500 -82.7833 149° Southeast 254 292 3,100 -500 Descending Tampa TRACON
Sat 10:49:30 PM 27.5833 -82.7333 146° Southeast 223 257 2,900 -500 Descending Tampa TRACON
Sat 10:50:30 PM 27.5500 -82.7000 138° Southeast 207 238 2,100 -400 Descending Tampa TRACON
Sat 10:51:30 PM 27.5000 -82.6667 149° Southeast 182 209 2,100  Level Tampa TRACON

Login

Don't have an account? Register now (free) for customized features, flight alerts, and more!